sensor_id;sensor_type;location;lat;lon;timestamp;temperature;humidity
8067;DHT22;4076;48.076;9.118;2023-12-22T00:02:20;6.70;99.90
8067;DHT22;4076;48.076;9.118;2023-12-22T00:04:46;6.70;99.90
8067;DHT22;4076;48.076;9.118;2023-12-22T00:07:11;6.80;99.90
8067;DHT22;4076;48.076;9.118;2023-12-22T00:09:37;6.80;99.90
8067;DHT22;4076;48.076;9.118;2023-12-22T00:12:03;6.80;99.90
8067;DHT22;4076;48.076;9.118;2023-12-22T00:14:29;6.80;99.90
8067;DHT22;4076;48.076;9.118;2023-12-22T00:16:54;6.80;99.90
8067;DHT22;4076;48.076;9.118;2023-12-22T00:19:20;6.80;99.90
8067;DHT22;4076;48.076;9.118;2023-12-22T00:21:45;6.70;99.90
8067;DHT22;4076;48.076;9.118;2023-12-22T00:24:11;6.70;99.90
8067;DHT22;4076;48.076;9.118;2023-12-22T00:26:37;6.70;99.90
8067;DHT22;4076;48.076;9.118;2023-12-22T00:29:02;6.80;99.90
8067;DHT22;4076;48.076;9.118;2023-12-22T00:31:28;6.80;99.90
8067;DHT22;4076;48.076;9.118;2023-12-22T00:33:53;6.70;99.90
8067;DHT22;4076;48.076;9.118;2023-12-22T00:36:19;6.70;99.90
8067;DHT22;4076;48.076;9.118;2023-12-22T00:38:48;6.70;99.90
8067;DHT22;4076;48.076;9.118;2023-12-22T00:41:14;6.60;99.90
8067;DHT22;4076;48.076;9.118;2023-12-22T00:43:39;6.60;99.90
8067;DHT22;4076;48.076;9.118;2023-12-22T00:46:05;6.50;99.90
8067;DHT22;4076;48.076;9.118;2023-12-22T00:48:30;6.50;99.90
8067;DHT22;4076;48.076;9.118;2023-12-22T00:50:56;6.40;99.90
8067;DHT22;4076;48.076;9.118;2023-12-22T00:53:22;6.40;99.90
8067;DHT22;4076;48.076;9.118;2023-12-22T00:55:47;6.30;99.90
8067;DHT22;4076;48.076;9.118;2023-12-22T00:58:13;6.20;99.90
8067;DHT22;4076;48.076;9.118;2023-12-22T01:00:38;6.10;99.90
8067;DHT22;4076;48.076;9.118;2023-12-22T01:03:04;6.00;99.90
8067;DHT22;4076;48.076;9.118;2023-12-22T01:05:29;5.90;99.90
8067;DHT22;4076;48.076;9.118;2023-12-22T01:07:55;5.90;99.90
8067;DHT22;4076;48.076;9.118;2023-12-22T01:10:20;5.70;99.90
8067;DHT22;4076;48.076;9.118;2023-12-22T01:12:46;5.60;99.90
8067;DHT22;4076;48.076;9.118;2023-12-22T01:15:12;5.60;99.90
8067;DHT22;4076;48.076;9.118;2023-12-22T01:17:37;5.60;99.90
8067;DHT22;4076;48.076;9.118;2023-12-22T01:20:04;5.60;99.90
8067;DHT22;4076;48.076;9.118;2023-12-22T01:22:29;5.70;99.90
8067;DHT22;4076;48.076;9.118;2023-12-22T01:24:57;5.70;99.90
8067;DHT22;4076;48.076;9.118;2023-12-22T01:27:23;5.80;99.90
8067;DHT22;4076;48.076;9.118;2023-12-22T01:29:48;5.90;99.90
8067;DHT22;4076;48.076;9.118;2023-12-22T01:32:14;5.90;99.90
8067;DHT22;4076;48.076;9.118;2023-12-22T01:34:40;5.90;99.90
8067;DHT22;4076;48.076;9.118;2023-12-22T01:37:05;5.90;99.90
8067;DHT22;4076;48.076;9.118;2023-12-22T01:39:31;5.90;99.90
8067;DHT22;4076;48.076;9.118;2023-12-22T01:41:57;5.90;99.90
8067;DHT22;4076;48.076;9.118;2023-12-22T01:44:22;5.90;99.90
8067;DHT22;4076;48.076;9.118;2023-12-22T01:46:49;5.90;99.90
8067;DHT22;4076;48.076;9.118;2023-12-22T01:49:16;5.90;99.90
8067;DHT22;4076;48.076;9.118;2023-12-22T01:51:42;5.90;99.90
8067;DHT22;4076;48.076;9.118;2023-12-22T01:54:08;5.90;99.90
8067;DHT22;4076;48.076;9.118;2023-12-22T01:56:35;6.00;99.90
8067;DHT22;4076;48.076;9.118;2023-12-22T01:59:01;6.00;99.90
8067;DHT22;4076;48.076;9.118;2023-12-22T02:01:28;6.00;99.90
8067;DHT22;4076;48.076;9.118;2023-12-22T02:03:54;6.00;99.90
8067;DHT22;4076;48.076;9.118;2023-12-22T02:06:20;6.00;99.90
8067;DHT22;4076;48.076;9.118;2023-12-22T02:08:47;6.10;99.90
8067;DHT22;4076;48.076;9.118;2023-12-22T02:11:16;6.10;99.90
8067;DHT22;4076;48.076;9.118;2023-12-22T02:13:45;6.10;99.90
8067;DHT22;4076;48.076;9.118;2023-12-22T02:16:26;6.20;99.90
8067;DHT22;4076;48.076;9.118;2023-12-22T02:18:59;6.20;99.90
8067;DHT22;4076;48.076;9.118;2023-12-22T02:21:29;6.20;99.90
8067;DHT22;4076;48.076;9.118;2023-12-22T02:23:55;6.20;99.90
8067;DHT22;4076;48.076;9.118;2023-12-22T02:26:38;6.20;99.90
8067;DHT22;4076;48.076;9.118;2023-12-22T02:29:08;6.30;99.90
8067;DHT22;4076;48.076;9.118;2023-12-22T02:31:41;6.30;99.90
8067;DHT22;4076;48.076;9.118;2023-12-22T02:34:13;6.30;99.90
8067;DHT22;4076;48.076;9.118;2023-12-22T02:36:41;6.30;99.90
8067;DHT22;4076;48.076;9.118;2023-12-22T02:39:08;6.30;99.90
8067;DHT22;4076;48.076;9.118;2023-12-22T02:41:35;6.30;99.90
8067;DHT22;4076;48.076;9.118;2023-12-22T02:44:01;6.20;99.90
8067;DHT22;4076;48.076;9.118;2023-12-22T02:46:27;6.20;99.90
8067;DHT22;4076;48.076;9.118;2023-12-22T02:48:53;6.10;99.90
8067;DHT22;4076;48.076;9.118;2023-12-22T02:51:18;6.00;99.90
8067;DHT22;4076;48.076;9.118;2023-12-22T02:53:44;6.00;99.90
8067;DHT22;4076;48.076;9.118;2023-12-22T02:56:09;6.00;99.90
8067;DHT22;4076;48.076;9.118;2023-12-22T02:58:35;5.90;99.90
8067;DHT22;4076;48.076;9.118;2023-12-22T03:01:00;5.90;99.90
8067;DHT22;4076;48.076;9.118;2023-12-22T03:03:26;5.90;99.90
8067;DHT22;4076;48.076;9.118;2023-12-22T03:05:51;5.90;99.90
8067;DHT22;4076;48.076;9.118;2023-12-22T03:08:17;5.80;99.90
8067;DHT22;4076;48.076;9.118;2023-12-22T03:10:42;5.80;99.90
8067;DHT22;4076;48.076;9.118;2023-12-22T03:13:08;5.80;99.90
8067;DHT22;4076;48.076;9.118;2023-12-22T03:15:34;5.80;99.90
8067;DHT22;4076;48.076;9.118;2023-12-22T03:18:00;5.80;99.90
8067;DHT22;4076;48.076;9.118;2023-12-22T03:20:25;5.80;99.90
8067;DHT22;4076;48.076;9.118;2023-12-22T03:22:51;5.80;99.90
8067;DHT22;4076;48.076;9.118;2023-12-22T03:25:16;5.80;99.90
8067;DHT22;4076;48.076;9.118;2023-12-22T03:27:42;5.70;99.90
8067;DHT22;4076;48.076;9.118;2023-12-22T03:30:08;5.70;99.90
8067;DHT22;4076;48.076;9.118;2023-12-22T03:32:34;5.70;99.90
8067;DHT22;4076;48.076;9.118;2023-12-22T03:34:59;5.70;99.90
8067;DHT22;4076;48.076;9.118;2023-12-22T03:37:25;5.80;99.90
8067;DHT22;4076;48.076;9.118;2023-12-22T03:39:50;5.80;99.90
8067;DHT22;4076;48.076;9.118;2023-12-22T03:42:16;5.80;99.90
8067;DHT22;4076;48.076;9.118;2023-12-22T03:44:42;5.80;99.90
8067;DHT22;4076;48.076;9.118;2023-12-22T03:47:07;5.80;99.90
8067;DHT22;4076;48.076;9.118;2023-12-22T03:49:33;5.70;99.90
8067;DHT22;4076;48.076;9.118;2023-12-22T03:51:58;5.70;99.90
8067;DHT22;4076;48.076;9.118;2023-12-22T03:54:24;5.70;99.90
8067;DHT22;4076;48.076;9.118;2023-12-22T03:56:49;5.60;99.90
8067;DHT22;4076;48.076;9.118;2023-12-22T03:59:15;5.60;99.90
8067;DHT22;4076;48.076;9.118;2023-12-22T04:01:44;5.60;99.90
8067;DHT22;4076;48.076;9.118;2023-12-22T04:04:09;5.60;99.90
8067;DHT22;4076;48.076;9.118;2023-12-22T04:06:39;5.60;99.90
8067;DHT22;4076;48.076;9.118;2023-12-22T04:09:05;5.50;99.90
8067;DHT22;4076;48.076;9.118;2023-12-22T04:11:31;5.50;99.90
8067;DHT22;4076;48.076;9.118;2023-12-22T04:13:56;5.50;99.90
8067;DHT22;4076;48.076;9.118;2023-12-22T04:16:22;5.50;99.90
8067;DHT22;4076;48.076;9.118;2023-12-22T04:18:47;5.50;99.90
8067;DHT22;4076;48.076;9.118;2023-12-22T04:21:13;5.60;99.90
8067;DHT22;4076;48.076;9.118;2023-12-22T04:23:38;5.60;99.90
8067;DHT22;4076;48.076;9.118;2023-12-22T04:26:04;5.60;99.90
8067;DHT22;4076;48.076;9.118;2023-12-22T04:28:30;5.60;99.90
8067;DHT22;4076;48.076;9.118;2023-12-22T04:30:55;5.60;99.90
8067;DHT22;4076;48.076;9.118;2023-12-22T04:33:21;5.70;99.90
8067;DHT22;4076;48.076;9.118;2023-12-22T04:35:46;5.60;99.90
8067;DHT22;4076;48.076;9.118;2023-12-22T04:38:12;5.60;99.90
8067;DHT22;4076;48.076;9.118;2023-12-22T04:40:37;5.50;99.90
8067;DHT22;4076;48.076;9.118;2023-12-22T04:43:03;5.50;99.90
8067;DHT22;4076;48.076;9.118;2023-12-22T04:45:29;5.50;99.90
8067;DHT22;4076;48.076;9.118;2023-12-22T04:47:54;5.40;99.90
8067;DHT22;4076;48.076;9.118;2023-12-22T04:50:20;5.40;99.90
8067;DHT22;4076;48.076;9.118;2023-12-22T04:52:45;5.40;99.90
8067;DHT22;4076;48.076;9.118;2023-12-22T04:55:11;5.40;99.90
8067;DHT22;4076;48.076;9.118;2023-12-22T04:57:36;5.40;99.90
8067;DHT22;4076;48.076;9.118;2023-12-22T05:00:02;5.40;99.90
8067;DHT22;4076;48.076;9.118;2023-12-22T05:02:28;5.40;99.90
8067;DHT22;4076;48.076;9.118;2023-12-22T05:04:54;5.40;99.90
8067;DHT22;4076;48.076;9.118;2023-12-22T05:07:20;5.50;99.90
8067;DHT22;4076;48.076;9.118;2023-12-22T05:09:45;5.50;99.90
8067;DHT22;4076;48.076;9.118;2023-12-22T05:12:11;5.50;99.90
8067;DHT22;4076;48.076;9.118;2023-12-22T05:14:37;5.50;99.90
8067;DHT22;4076;48.076;9.118;2023-12-22T05:17:02;5.50;99.90
8067;DHT22;4076;48.076;9.118;2023-12-22T05:19:28;5.50;99.90
8067;DHT22;4076;48.076;9.118;2023-12-22T05:21:53;5.50;99.90
8067;DHT22;4076;48.076;9.118;2023-12-22T05:24:21;5.50;99.90
8067;DHT22;4076;48.076;9.118;2023-12-22T05:26:47;5.50;99.90
8067;DHT22;4076;48.076;9.118;2023-12-22T05:29:13;5.40;99.90
8067;DHT22;4076;48.076;9.118;2023-12-22T05:31:39;5.40;99.90
8067;DHT22;4076;48.076;9.118;2023-12-22T05:34:05;5.40;99.90
8067;DHT22;4076;48.076;9.118;2023-12-22T05:36:31;5.30;99.90
8067;DHT22;4076;48.076;9.118;2023-12-22T05:38:56;5.30;99.90
8067;DHT22;4076;48.076;9.118;2023-12-22T05:41:22;5.30;99.90
8067;DHT22;4076;48.076;9.118;2023-12-22T05:43:50;5.30;99.90
8067;DHT22;4076;48.076;9.118;2023-12-22T05:46:16;5.30;99.90
8067;DHT22;4076;48.076;9.118;2023-12-22T05:48:41;5.30;99.90
8067;DHT22;4076;48.076;9.118;2023-12-22T05:51:07;5.30;99.90
8067;DHT22;4076;48.076;9.118;2023-12-22T05:53:41;5.30;99.90
8067;DHT22;4076;48.076;9.118;2023-12-22T05:56:20;5.40;99.90
8067;DHT22;4076;48.076;9.118;2023-12-22T05:58:47;5.40;99.90
8067;DHT22;4076;48.076;9.118;2023-12-22T06:01:17;5.40;99.90
8067;DHT22;4076;48.076;9.118;2023-12-22T06:03:46;5.40;99.90
8067;DHT22;4076;48.076;9.118;2023-12-22T06:06:12;5.40;99.90
8067;DHT22;4076;48.076;9.118;2023-12-22T06:08:38;5.40;99.90
8067;DHT22;4076;48.076;9.118;2023-12-22T06:11:04;5.40;99.90
8067;DHT22;4076;48.076;9.118;2023-12-22T06:13:30;5.50;99.90
8067;DHT22;4076;48.076;9.118;2023-12-22T06:15:56;5.50;99.90
8067;DHT22;4076;48.076;9.118;2023-12-22T06:18:22;5.50;99.90
8067;DHT22;4076;48.076;9.118;2023-12-22T06:20:47;5.40;99.90
8067;DHT22;4076;48.076;9.118;2023-12-22T06:23:13;5.40;99.90
8067;DHT22;4076;48.076;9.118;2023-12-22T06:25:39;5.40;99.90
8067;DHT22;4076;48.076;9.118;2023-12-22T06:28:04;5.40;99.90
8067;DHT22;4076;48.076;9.118;2023-12-22T06:30:30;5.30;99.90
8067;DHT22;4076;48.076;9.118;2023-12-22T06:32:56;5.40;99.90
8067;DHT22;4076;48.076;9.118;2023-12-22T06:35:21;5.40;99.90
8067;DHT22;4076;48.076;9.118;2023-12-22T06:37:51;5.40;99.90
8067;DHT22;4076;48.076;9.118;2023-12-22T06:40:17;5.40;99.90
8067;DHT22;4076;48.076;9.118;2023-12-22T06:42:44;5.40;99.90
8067;DHT22;4076;48.076;9.118;2023-12-22T06:45:10;5.40;99.90
8067;DHT22;4076;48.076;9.118;2023-12-22T06:47:36;5.40;99.90
8067;DHT22;4076;48.076;9.118;2023-12-22T06:50:02;5.40;99.90
8067;DHT22;4076;48.076;9.118;2023-12-22T06:52:28;5.40;99.90
8067;DHT22;4076;48.076;9.118;2023-12-22T06:54:56;5.40;99.90
8067;DHT22;4076;48.076;9.118;2023-12-22T06:57:21;5.40;99.90
8067;DHT22;4076;48.076;9.118;2023-12-22T06:59:47;5.40;99.90
8067;DHT22;4076;48.076;9.118;2023-12-22T07:02:14;5.40;99.90
8067;DHT22;4076;48.076;9.118;2023-12-22T07:04:40;5.40;99.90
8067;DHT22;4076;48.076;9.118;2023-12-22T07:07:05;5.40;99.90
8067;DHT22;4076;48.076;9.118;2023-12-22T07:09:31;5.40;99.90
8067;DHT22;4076;48.076;9.118;2023-12-22T07:11:57;5.40;99.90
8067;DHT22;4076;48.076;9.118;2023-12-22T07:14:24;5.40;99.90
8067;DHT22;4076;48.076;9.118;2023-12-22T07:16:49;5.40;99.90
8067;DHT22;4076;48.076;9.118;2023-12-22T07:19:15;5.40;99.90
8067;DHT22;4076;48.076;9.118;2023-12-22T07:21:41;5.50;99.90
8067;DHT22;4076;48.076;9.118;2023-12-22T07:24:07;5.50;99.90
8067;DHT22;4076;48.076;9.118;2023-12-22T07:26:33;5.50;99.90
8067;DHT22;4076;48.076;9.118;2023-12-22T07:28:58;5.50;99.90
8067;DHT22;4076;48.076;9.118;2023-12-22T07:31:24;5.50;99.90
8067;DHT22;4076;48.076;9.118;2023-12-22T07:33:50;5.50;99.90
8067;DHT22;4076;48.076;9.118;2023-12-22T07:36:17;5.50;99.90
8067;DHT22;4076;48.076;9.118;2023-12-22T07:38:44;5.50;99.90
8067;DHT22;4076;48.076;9.118;2023-12-22T07:41:10;5.50;99.90
8067;DHT22;4076;48.076;9.118;2023-12-22T07:43:36;5.50;99.90
8067;DHT22;4076;48.076;9.118;2023-12-22T07:46:01;5.50;99.90
8067;DHT22;4076;48.076;9.118;2023-12-22T07:48:27;5.50;99.90
8067;DHT22;4076;48.076;9.118;2023-12-22T07:50:53;5.60;99.90
8067;DHT22;4076;48.076;9.118;2023-12-22T07:53:19;5.60;99.90
8067;DHT22;4076;48.076;9.118;2023-12-22T07:55:45;5.60;99.90
8067;DHT22;4076;48.076;9.118;2023-12-22T07:58:12;5.70;99.90
8067;DHT22;4076;48.076;9.118;2023-12-22T08:00:38;5.70;99.90
8067;DHT22;4076;48.076;9.118;2023-12-22T08:03:04;5.70;99.90
8067;DHT22;4076;48.076;9.118;2023-12-22T08:05:29;5.80;99.90
8067;DHT22;4076;48.076;9.118;2023-12-22T08:07:55;5.80;99.90
8067;DHT22;4076;48.076;9.118;2023-12-22T08:10:21;5.80;99.90
8067;DHT22;4076;48.076;9.118;2023-12-22T08:12:47;5.90;99.90
8067;DHT22;4076;48.076;9.118;2023-12-22T08:15:13;5.90;99.90
8067;DHT22;4076;48.076;9.118;2023-12-22T08:17:49;6.10;99.90
8067;DHT22;4076;48.076;9.118;2023-12-22T08:20:19;6.10;99.90
8067;DHT22;4076;48.076;9.118;2023-12-22T08:22:49;6.20;99.90
8067;DHT22;4076;48.076;9.118;2023-12-22T08:25:15;6.30;99.90
8067;DHT22;4076;48.076;9.118;2023-12-22T08:27:42;6.40;99.90
8067;DHT22;4076;48.076;9.118;2023-12-22T08:30:09;6.50;99.90
8067;DHT22;4076;48.076;9.118;2023-12-22T08:32:35;6.60;99.90
8067;DHT22;4076;48.076;9.118;2023-12-22T08:35:01;6.70;99.90
8067;DHT22;4076;48.076;9.118;2023-12-22T08:37:26;6.90;99.90
8067;DHT22;4076;48.076;9.118;2023-12-22T08:39:52;6.90;99.90
8067;DHT22;4076;48.076;9.118;2023-12-22T08:42:18;6.90;99.90
8067;DHT22;4076;48.076;9.118;2023-12-22T08:44:43;6.90;99.90
8067;DHT22;4076;48.076;9.118;2023-12-22T08:47:09;6.80;99.90
8067;DHT22;4076;48.076;9.118;2023-12-22T08:49:35;6.80;99.90
8067;DHT22;4076;48.076;9.118;2023-12-22T08:52:00;6.80;99.90
8067;DHT22;4076;48.076;9.118;2023-12-22T08:54:27;6.70;99.90
8067;DHT22;4076;48.076;9.118;2023-12-22T08:56:52;6.70;99.90
8067;DHT22;4076;48.076;9.118;2023-12-22T08:59:18;6.70;99.90
8067;DHT22;4076;48.076;9.118;2023-12-22T09:01:43;6.70;99.90
8067;DHT22;4076;48.076;9.118;2023-12-22T09:04:10;6.70;99.90
8067;DHT22;4076;48.076;9.118;2023-12-22T09:06:37;6.70;99.90
8067;DHT22;4076;48.076;9.118;2023-12-22T09:09:02;6.70;99.90
8067;DHT22;4076;48.076;9.118;2023-12-22T09:11:29;6.80;99.90
8067;DHT22;4076;48.076;9.118;2023-12-22T09:13:54;6.80;99.90
8067;DHT22;4076;48.076;9.118;2023-12-22T09:16:22;6.80;99.90
8067;DHT22;4076;48.076;9.118;2023-12-22T09:18:48;6.80;99.90
8067;DHT22;4076;48.076;9.118;2023-12-22T09:21:13;6.70;99.90
8067;DHT22;4076;48.076;9.118;2023-12-22T09:23:39;6.70;99.90
8067;DHT22;4076;48.076;9.118;2023-12-22T09:26:04;6.80;99.90
8067;DHT22;4076;48.076;9.118;2023-12-22T09:28:30;6.80;99.90
8067;DHT22;4076;48.076;9.118;2023-12-22T09:30:56;6.80;99.90
8067;DHT22;4076;48.076;9.118;2023-12-22T09:33:21;6.80;99.90
8067;DHT22;4076;48.076;9.118;2023-12-22T09:35:48;6.80;99.90
8067;DHT22;4076;48.076;9.118;2023-12-22T09:38:14;6.80;99.90
8067;DHT22;4076;48.076;9.118;2023-12-22T09:40:40;6.80;99.90
8067;DHT22;4076;48.076;9.118;2023-12-22T09:43:06;6.70;99.90
8067;DHT22;4076;48.076;9.118;2023-12-22T09:45:33;6.70;99.90
8067;DHT22;4076;48.076;9.118;2023-12-22T09:47:59;6.70;99.90
8067;DHT22;4076;48.076;9.118;2023-12-22T09:50:26;6.70;99.90
8067;DHT22;4076;48.076;9.118;2023-12-22T09:52:52;6.70;99.90
8067;DHT22;4076;48.076;9.118;2023-12-22T09:55:23;6.70;99.90
8067;DHT22;4076;48.076;9.118;2023-12-22T09:57:51;6.70;99.90
8067;DHT22;4076;48.076;9.118;2023-12-22T10:00:18;6.80;99.90
8067;DHT22;4076;48.076;9.118;2023-12-22T10:02:44;6.80;99.90
8067;DHT22;4076;48.076;9.118;2023-12-22T10:05:11;6.90;99.90
8067;DHT22;4076;48.076;9.118;2023-12-22T10:07:39;6.90;99.90
8067;DHT22;4076;48.076;9.118;2023-12-22T10:10:07;7.00;99.90
8067;DHT22;4076;48.076;9.118;2023-12-22T10:12:33;7.00;99.90
8067;DHT22;4076;48.076;9.118;2023-12-22T10:15:00;7.10;99.90
8067;DHT22;4076;48.076;9.118;2023-12-22T10:17:26;7.10;99.90
8067;DHT22;4076;48.076;9.118;2023-12-22T10:19:52;7.20;99.90
8067;DHT22;4076;48.076;9.118;2023-12-22T10:22:18;7.20;99.90
8067;DHT22;4076;48.076;9.118;2023-12-22T10:24:45;7.20;99.90
8067;DHT22;4076;48.076;9.118;2023-12-22T10:27:16;7.30;99.90
8067;DHT22;4076;48.076;9.118;2023-12-22T10:29:51;7.30;99.90
8067;DHT22;4076;48.076;9.118;2023-12-22T10:32:19;7.20;99.90
8067;DHT22;4076;48.076;9.118;2023-12-22T10:34:45;7.20;99.90
8067;DHT22;4076;48.076;9.118;2023-12-22T10:37:11;7.20;99.90
8067;DHT22;4076;48.076;9.118;2023-12-22T10:39:39;7.10;99.90
8067;DHT22;4076;48.076;9.118;2023-12-22T10:42:06;7.20;99.90
8067;DHT22;4076;48.076;9.118;2023-12-22T10:44:32;7.20;99.90
8067;DHT22;4076;48.076;9.118;2023-12-22T10:46:58;7.20;99.90
8067;DHT22;4076;48.076;9.118;2023-12-22T10:49:24;7.20;99.90
8067;DHT22;4076;48.076;9.118;2023-12-22T10:51:50;7.20;99.90
8067;DHT22;4076;48.076;9.118;2023-12-22T10:54:17;7.20;99.90
8067;DHT22;4076;48.076;9.118;2023-12-22T10:56:43;7.20;99.90
8067;DHT22;4076;48.076;9.118;2023-12-22T10:59:09;7.20;99.90
8067;DHT22;4076;48.076;9.118;2023-12-22T11:01:36;7.20;99.90
8067;DHT22;4076;48.076;9.118;2023-12-22T11:04:09;7.10;99.90
8067;DHT22;4076;48.076;9.118;2023-12-22T11:06:40;7.10;99.90
8067;DHT22;4076;48.076;9.118;2023-12-22T11:09:08;7.10;99.90
8067;DHT22;4076;48.076;9.118;2023-12-22T11:11:38;7.20;99.90
8067;DHT22;4076;48.076;9.118;2023-12-22T11:14:05;7.20;99.90
8067;DHT22;4076;48.076;9.118;2023-12-22T11:16:33;7.10;99.90
8067;DHT22;4076;48.076;9.118;2023-12-22T11:19:00;7.10;99.90
8067;DHT22;4076;48.076;9.118;2023-12-22T11:21:26;7.10;99.90
8067;DHT22;4076;48.076;9.118;2023-12-22T11:23:53;7.10;99.90
8067;DHT22;4076;48.076;9.118;2023-12-22T11:26:21;7.10;99.90
8067;DHT22;4076;48.076;9.118;2023-12-22T11:28:49;7.10;99.90
8067;DHT22;4076;48.076;9.118;2023-12-22T11:31:15;7.10;99.90
8067;DHT22;4076;48.076;9.118;2023-12-22T11:33:45;7.10;99.90
8067;DHT22;4076;48.076;9.118;2023-12-22T11:36:13;7.00;99.90
8067;DHT22;4076;48.076;9.118;2023-12-22T11:38:42;7.00;99.90
8067;DHT22;4076;48.076;9.118;2023-12-22T11:41:18;7.00;99.90
8067;DHT22;4076;48.076;9.118;2023-12-22T11:43:45;7.00;99.90
8067;DHT22;4076;48.076;9.118;2023-12-22T11:46:11;6.90;99.90
8067;DHT22;4076;48.076;9.118;2023-12-22T11:48:37;6.90;99.90
8067;DHT22;4076;48.076;9.118;2023-12-22T11:51:15;7.00;99.90
8067;DHT22;4076;48.076;9.118;2023-12-22T11:53:41;7.00;99.90
8067;DHT22;4076;48.076;9.118;2023-12-22T11:56:07;7.00;99.90
8067;DHT22;4076;48.076;9.118;2023-12-22T11:58:37;7.10;99.90
8067;DHT22;4076;48.076;9.118;2023-12-22T12:01:05;7.10;99.90
8067;DHT22;4076;48.076;9.118;2023-12-22T12:03:31;7.20;99.90
8067;DHT22;4076;48.076;9.118;2023-12-22T12:06:22;7.20;99.90
8067;DHT22;4076;48.076;9.118;2023-12-22T12:08:48;7.20;99.90
8067;DHT22;4076;48.076;9.118;2023-12-22T12:11:17;7.20;99.90
8067;DHT22;4076;48.076;9.118;2023-12-22T12:13:44;7.20;99.90
8067;DHT22;4076;48.076;9.118;2023-12-22T12:16:11;7.20;99.90
8067;DHT22;4076;48.076;9.118;2023-12-22T12:18:37;7.20;99.90
8067;DHT22;4076;48.076;9.118;2023-12-22T12:21:03;7.20;99.90
8067;DHT22;4076;48.076;9.118;2023-12-22T12:23:29;7.20;99.90
8067;DHT22;4076;48.076;9.118;2023-12-22T12:25:55;7.20;99.90
8067;DHT22;4076;48.076;9.118;2023-12-22T12:28:29;7.20;99.90
8067;DHT22;4076;48.076;9.118;2023-12-22T12:31:00;7.20;99.90
8067;DHT22;4076;48.076;9.118;2023-12-22T12:33:27;7.20;99.90
8067;DHT22;4076;48.076;9.118;2023-12-22T12:35:57;7.20;99.90
8067;DHT22;4076;48.076;9.118;2023-12-22T12:38:36;7.20;99.90
8067;DHT22;4076;48.076;9.118;2023-12-22T12:41:04;7.20;99.90
8067;DHT22;4076;48.076;9.118;2023-12-22T12:43:31;7.20;99.90
8067;DHT22;4076;48.076;9.118;2023-12-22T12:46:05;7.20;99.90
8067;DHT22;4076;48.076;9.118;2023-12-22T12:48:31;7.30;99.90
8067;DHT22;4076;48.076;9.118;2023-12-22T12:51:06;7.30;99.90
8067;DHT22;4076;48.076;9.118;2023-12-22T12:53:33;7.30;99.90
8067;DHT22;4076;48.076;9.118;2023-12-22T12:55:59;7.40;99.90
8067;DHT22;4076;48.076;9.118;2023-12-22T12:58:32;7.40;99.90
8067;DHT22;4076;48.076;9.118;2023-12-22T13:01:07;7.40;99.90
8067;DHT22;4076;48.076;9.118;2023-12-22T13:03:43;7.40;99.90
8067;DHT22;4076;48.076;9.118;2023-12-22T13:06:16;7.40;99.90
8067;DHT22;4076;48.076;9.118;2023-12-22T13:08:50;7.40;99.90
8067;DHT22;4076;48.076;9.118;2023-12-22T13:11:21;7.40;99.90
8067;DHT22;4076;48.076;9.118;2023-12-22T13:13:46;7.40;99.90
8067;DHT22;4076;48.076;9.118;2023-12-22T13:16:12;7.40;99.90
8067;DHT22;4076;48.076;9.118;2023-12-22T13:18:38;7.30;99.90
8067;DHT22;4076;48.076;9.118;2023-12-22T13:21:04;7.30;99.90
8067;DHT22;4076;48.076;9.118;2023-12-22T13:23:29;7.40;99.90
8067;DHT22;4076;48.076;9.118;2023-12-22T13:25:55;7.40;99.90
8067;DHT22;4076;48.076;9.118;2023-12-22T13:28:27;7.30;99.90
8067;DHT22;4076;48.076;9.118;2023-12-22T13:30:53;7.30;99.90
8067;DHT22;4076;48.076;9.118;2023-12-22T13:33:19;7.30;99.90
8067;DHT22;4076;48.076;9.118;2023-12-22T13:35:45;7.30;99.90
8067;DHT22;4076;48.076;9.118;2023-12-22T13:38:12;7.30;99.90
8067;DHT22;4076;48.076;9.118;2023-12-22T13:40:38;7.30;99.90
8067;DHT22;4076;48.076;9.118;2023-12-22T13:43:04;7.30;99.90
8067;DHT22;4076;48.076;9.118;2023-12-22T13:45:31;7.30;99.90
8067;DHT22;4076;48.076;9.118;2023-12-22T13:47:58;7.30;99.90
8067;DHT22;4076;48.076;9.118;2023-12-22T13:50:24;7.30;99.90
8067;DHT22;4076;48.076;9.118;2023-12-22T13:52:50;7.30;99.90
8067;DHT22;4076;48.076;9.118;2023-12-22T13:55:18;7.30;99.90
8067;DHT22;4076;48.076;9.118;2023-12-22T13:57:44;7.30;99.90
8067;DHT22;4076;48.076;9.118;2023-12-22T14:02:48;7.30;99.90
8067;DHT22;4076;48.076;9.118;2023-12-22T14:05:20;7.30;99.90
8067;DHT22;4076;48.076;9.118;2023-12-22T14:07:47;7.30;99.90
8067;DHT22;4076;48.076;9.118;2023-12-22T14:10:16;7.30;99.90
8067;DHT22;4076;48.076;9.118;2023-12-22T14:12:42;7.30;99.90
8067;DHT22;4076;48.076;9.118;2023-12-22T14:15:08;7.30;99.90
8067;DHT22;4076;48.076;9.118;2023-12-22T14:17:35;7.30;99.90
8067;DHT22;4076;48.076;9.118;2023-12-22T14:20:01;7.30;99.90
8067;DHT22;4076;48.076;9.118;2023-12-22T14:22:27;7.30;99.90
8067;DHT22;4076;48.076;9.118;2023-12-22T14:24:53;7.40;99.90
8067;DHT22;4076;48.076;9.118;2023-12-22T14:27:19;7.40;99.90
8067;DHT22;4076;48.076;9.118;2023-12-22T14:29:45;7.40;99.90
8067;DHT22;4076;48.076;9.118;2023-12-22T14:32:11;7.40;99.90
8067;DHT22;4076;48.076;9.118;2023-12-22T14:34:38;7.40;99.90
8067;DHT22;4076;48.076;9.118;2023-12-22T14:37:04;7.40;99.90
8067;DHT22;4076;48.076;9.118;2023-12-22T14:39:29;7.40;99.90
8067;DHT22;4076;48.076;9.118;2023-12-22T14:41:56;7.40;99.90
8067;DHT22;4076;48.076;9.118;2023-12-22T14:44:22;7.40;99.90
8067;DHT22;4076;48.076;9.118;2023-12-22T14:46:47;7.40;99.90
8067;DHT22;4076;48.076;9.118;2023-12-22T14:49:13;7.50;99.90
8067;DHT22;4076;48.076;9.118;2023-12-22T14:51:39;7.40;99.90
8067;DHT22;4076;48.076;9.118;2023-12-22T14:54:07;7.50;99.90
8067;DHT22;4076;48.076;9.118;2023-12-22T14:56:34;7.40;99.90
8067;DHT22;4076;48.076;9.118;2023-12-22T14:58:59;7.40;99.90
8067;DHT22;4076;48.076;9.118;2023-12-22T15:01:25;7.50;99.90
8067;DHT22;4076;48.076;9.118;2023-12-22T15:03:51;7.40;99.90
8067;DHT22;4076;48.076;9.118;2023-12-22T15:06:16;7.40;99.90
8067;DHT22;4076;48.076;9.118;2023-12-22T15:08:42;7.40;99.90
8067;DHT22;4076;48.076;9.118;2023-12-22T15:11:08;7.30;99.90
8067;DHT22;4076;48.076;9.118;2023-12-22T15:13:34;7.40;99.90
8067;DHT22;4076;48.076;9.118;2023-12-22T15:16:09;7.30;99.90
8067;DHT22;4076;48.076;9.118;2023-12-22T15:18:34;7.30;99.90
8067;DHT22;4076;48.076;9.118;2023-12-22T15:21:00;7.30;99.90
8067;DHT22;4076;48.076;9.118;2023-12-22T15:23:25;7.30;99.90
8067;DHT22;4076;48.076;9.118;2023-12-22T15:25:51;7.20;99.90
8067;DHT22;4076;48.076;9.118;2023-12-22T15:28:17;7.30;99.90
8067;DHT22;4076;48.076;9.118;2023-12-22T15:30:43;7.30;99.90
8067;DHT22;4076;48.076;9.118;2023-12-22T15:33:09;7.30;99.90
8067;DHT22;4076;48.076;9.118;2023-12-22T15:35:34;7.30;99.90
8067;DHT22;4076;48.076;9.118;2023-12-22T15:38:00;7.30;99.90
8067;DHT22;4076;48.076;9.118;2023-12-22T15:40:25;7.20;99.90
8067;DHT22;4076;48.076;9.118;2023-12-22T15:42:51;7.20;99.90
8067;DHT22;4076;48.076;9.118;2023-12-22T15:45:16;7.20;99.90
8067;DHT22;4076;48.076;9.118;2023-12-22T15:47:42;7.30;99.90
8067;DHT22;4076;48.076;9.118;2023-12-22T15:50:08;7.30;99.90
8067;DHT22;4076;48.076;9.118;2023-12-22T15:52:37;7.30;99.90
8067;DHT22;4076;48.076;9.118;2023-12-22T15:55:03;7.30;99.90
8067;DHT22;4076;48.076;9.118;2023-12-22T15:57:28;7.30;99.90
8067;DHT22;4076;48.076;9.118;2023-12-22T15:59:54;7.30;99.90
8067;DHT22;4076;48.076;9.118;2023-12-22T16:02:19;7.30;99.90
8067;DHT22;4076;48.076;9.118;2023-12-22T16:04:45;7.30;99.90
8067;DHT22;4076;48.076;9.118;2023-12-22T16:07:11;7.20;99.90
8067;DHT22;4076;48.076;9.118;2023-12-22T16:09:37;7.20;99.90
8067;DHT22;4076;48.076;9.118;2023-12-22T16:12:03;7.20;99.90
8067;DHT22;4076;48.076;9.118;2023-12-22T16:14:32;7.20;99.90
8067;DHT22;4076;48.076;9.118;2023-12-22T16:16:57;7.20;99.90